EmailTwitter


Observations de surface / France / LFBP (07610)

Régions: Québec | Canada | États-Unis | Europe | France | UK | Ailleurs
Station
Affichage
Infos & localisation pour LFBP (07610) | Aide pour décoder les METARs

Observations prises le 2018-04-23 à 09H00 UTC à PONT-LONG-UZEIN/, FR (LFBP)

Etat du ciel: couvert.

Température: 15.0 Celsius

Point de rosée: 13.0 Celsius

Humidité relative: 88%

Vents: Variable à 4 km/h ou 2 noeuds.

Pression au niveau moyen de la mer: 102.20 kilopascals.

Visibilité horizontale: 6.21 milles terrestres ou 9.94 kilomètres.

Hauteur du plafond: 335 mètres ( 1100 pieds ).

Observation METAR:

LFBP 230900Z AUTO VRB02KT 9999 OVC011 15/13 Q1022 NOSIG=